Time;durP1;ratioP1;P1;durP2;ratioP2;P2;SDS_P1;SDS_P2;PMS_P1;PMS_P2;Temp;Humidity;BMP_temperature;BMP_pressure;BME280_temperature;BME280_humidity;BME280_pressure;Samples;Min_cycle;Max_cycle;Signal;HPM_P1;HPM_P2
2020/12/18 00:01:56;;;;;;;7.97;3.72;;;7.60;1.00;;;;;;5015078;28;20416;-65
2020/12/18 00:04:22;;;;;;;4.30;3.20;;;7.70;1.00;;;;;;5013707;28;20447;-65
2020/12/18 00:06:49;;;;;;;7.50;3.47;;;7.70;1.00;;;;;;5014158;28;20777;-65
2020/12/18 00:09:15;;;;;;;4.40;3.40;;;7.80;1.00;;;;;;5013798;28;20428;-65
2020/12/18 00:11:41;;;;;;;3.20;2.90;;;7.90;1.00;;;;;;5013852;28;20428;-65
2020/12/18 00:14:07;;;;;;;6.82;3.35;;;7.90;1.00;;;;;;5013665;28;20882;-65
2020/12/18 00:16:34;;;;;;;4.97;3.17;;;8.00;1.00;;;;;;5013598;28;20420;-65
2020/12/18 00:19:00;;;;;;;5.10;3.05;;;8.00;1.00;;;;;;5013529;28;20511;-65
2020/12/18 00:21:26;;;;;;;4.27;2.80;;;8.00;1.00;;;;;;5013498;28;20416;-65
2020/12/18 00:23:53;;;;;;;4.88;3.05;;;8.00;1.00;;;;;;5013681;28;20420;-65
2020/12/18 00:26:19;;;;;;;4.83;2.80;;;8.10;1.00;;;;;;5013099;28;20420;-65
2020/12/18 00:28:46;;;;;;;6.47;2.80;;;8.10;1.00;;;;;;5013696;28;20463;-65
2020/12/18 00:31:13;;;;;;;5.77;3.30;;;8.10;1.00;;;;;;5013305;28;20433;-65
2020/12/18 00:33:39;;;;;;;5.72;3.10;;;8.10;1.00;;;;;;5013186;28;20420;-65
2020/12/18 00:36:05;;;;;;;6.75;3.00;;;8.10;1.00;;;;;;5013212;28;20897;-65
2020/12/18 00:38:31;;;;;;;4.80;3.40;;;8.20;1.00;;;;;;5013235;28;20420;-65
2020/12/18 00:40:58;;;;;;;6.18;3.15;;;8.20;1.00;;;;;;5013113;28;20914;-65
2020/12/18 00:43:24;;;;;;;7.93;2.80;;;8.20;1.00;;;;;;5013141;28;20421;-65
2020/12/18 00:45:51;;;;;;;4.78;2.90;;;8.10;1.00;;;;;;5012996;28;20408;-65
2020/12/18 00:48:17;;;;;;;4.13;3.20;;;8.10;1.00;;;;;;5013269;28;20420;-65
2020/12/18 00:50:43;;;;;;;3.53;3.00;;;8.20;1.00;;;;;;5012853;28;20429;-65
2020/12/18 00:53:09;;;;;;;6.00;3.00;;;8.10;1.00;;;;;;5013133;28;20471;-65
2020/12/18 00:55:35;;;;;;;4.97;2.88;;;8.10;1.00;;;;;;5012953;28;20765;-65
2020/12/18 00:58:02;;;;;;;3.20;2.90;;;8.10;1.00;;;;;;5012977;28;20770;-65
2020/12/18 01:00:28;;;;;;;5.43;3.15;;;8.20;1.00;;;;;;5012786;28;20416;-65
2020/12/18 01:02:55;;;;;;;5.22;3.40;;;8.20;1.00;;;;;;5012745;28;20420;-65
2020/12/18 01:05:21;;;;;;;6.57;3.88;;;8.10;1.00;;;;;;5012933;28;20420;-65
2020/12/18 01:07:47;;;;;;;4.78;2.65;;;8.00;1.00;;;;;;5012620;28;20413;-65
2020/12/18 01:10:13;;;;;;;4.63;2.95;;;8.00;1.00;;;;;;5012679;28;20469;-65
2020/12/18 01:12:39;;;;;;;4.10;3.63;;;7.90;1.00;;;;;;5012540;28;20948;-65
2020/12/18 01:15:06;;;;;;;5.13;2.88;;;7.90;1.00;;;;;;5012390;28;20421;-65
2020/12/18 01:17:32;;;;;;;5.57;3.30;;;7.90;1.00;;;;;;5012289;28;20781;-65
2020/12/18 01:19:58;;;;;;;5.38;2.85;;;7.80;1.00;;;;;;5012383;28;20413;-65
2020/12/18 01:22:24;;;;;;;6.13;3.00;;;7.80;1.00;;;;;;5012420;28;20427;-65
2020/12/18 01:24:50;;;;;;;5.78;2.75;;;7.80;1.00;;;;;;5012270;28;20416;-65
2020/12/18 01:27:16;;;;;;;3.42;2.83;;;7.80;1.00;;;;;;5012364;28;20908;-65
2020/12/18 01:29:42;;;;;;;4.80;3.00;;;7.80;1.00;;;;;;5011938;28;20424;-66
2020/12/18 01:32:09;;;;;;;6.15;3.30;;;7.70;1.00;;;;;;5011926;28;20417;-65
2020/12/18 01:34:35;;;;;;;4.70;3.40;;;7.70;1.00;;;;;;5012257;28;20472;-65
2020/12/18 01:37:02;;;;;;;4.57;3.40;;;7.60;1.00;;;;;;5011266;28;20416;-65
2020/12/18 01:39:28;;;;;;;6.20;3.30;;;7.60;1.00;;;;;;5012259;28;20793;-65
2020/12/18 01:41:54;;;;;;;4.03;2.80;;;7.60;1.00;;;;;;5011861;28;20421;-65
2020/12/18 01:44:20;;;;;;;6.55;3.10;;;7.60;1.00;;;;;;5011878;28;21075;-65
2020/12/18 01:46:46;;;;;;;5.70;3.08;;;7.60;1.00;;;;;;5012180;28;20470;-65
2020/12/18 01:49:13;;;;;;;3.00;2.67;;;7.60;1.00;;;;;;5011895;28;20428;-65
2020/12/18 01:51:39;;;;;;;4.80;3.00;;;7.60;1.00;;;;;;5011796;28;20773;-65
2020/12/18 01:54:06;;;;;;;5.05;3.10;;;7.50;1.00;;;;;;5011730;28;20427;-65
2020/12/18 01:56:32;;;;;;;3.97;2.80;;;7.50;1.00;;;;;;5011764;28;20416;-65
2020/12/18 01:58:58;;;;;;;5.13;2.50;;;7.50;1.00;;;;;;5011645;28;20408;-65
2020/12/18 02:01:25;;;;;;;5.23;2.80;;;7.50;1.00;;;;;;5011828;28;20466;-65
2020/12/18 02:03:53;;;;;;;3.40;2.90;;;7.50;1.00;;;;;;5011891;28;20797;-65
2020/12/18 02:06:21;;;;;;;4.20;2.40;;;7.50;1.00;;;;;;5011418;28;20420;-65
2020/12/18 02:08:49;;;;;;;4.10;2.80;;;7.50;1.00;;;;;;5011667;28;20464;-65
2020/12/18 02:11:20;;;;;;;3.50;2.50;;;7.50;1.00;;;;;;5011340;28;20488;-65
2020/12/18 02:13:47;;;;;;;5.50;2.70;;;7.40;1.00;;;;;;5011689;28;20421;-65
2020/12/18 02:16:13;;;;;;;5.25;2.45;;;7.40;1.00;;;;;;5011551;28;21056;-65
2020/12/18 02:18:39;;;;;;;5.75;2.55;;;7.40;1.00;;;;;;5011719;28;20818;-65
2020/12/18 02:21:05;;;;;;;6.05;2.40;;;7.30;1.00;;;;;;5011395;28;20415;-65
2020/12/18 02:23:32;;;;;;;3.90;2.90;;;7.30;1.00;;;;;;5011295;28;20416;-65
2020/12/18 02:26:06;;;;;;;4.32;2.33;;;7.50;1.00;;;;;;5011450;28;20421;-65
2020/12/18 02:28:32;;;;;;;4.50;2.30;;;7.30;1.00;;;;;;5011645;28;20487;-65
2020/12/18 02:30:58;;;;;;;2.83;2.25;;;7.20;1.00;;;;;;5011477;28;20425;-65
2020/12/18 02:33:24;;;;;;;5.20;2.38;;;7.20;1.00;;;;;;5011421;28;20423;-65
2020/12/18 02:35:51;;;;;;;4.85;2.40;;;7.20;1.00;;;;;;5011149;28;20416;-65
2020/12/18 02:38:17;;;;;;;3.63;2.40;;;7.20;1.00;;;;;;5011290;28;20416;-65
2020/12/18 02:40:43;;;;;;;4.43;2.58;;;7.20;1.00;;;;;;5010857;28;20409;-65
2020/12/18 02:43:10;;;;;;;5.20;2.57;;;7.20;1.00;;;;;;5011812;28;20474;-65
2020/12/18 02:45:36;;;;;;;5.07;2.15;;;7.20;1.00;;;;;;5011332;28;20413;-65
2020/12/18 02:48:02;;;;;;;2.70;2.50;;;7.20;1.00;;;;;;5013113;28;20412;-65
2020/12/18 02:50:28;;;;;;;4.25;3.03;;;7.20;1.00;;;;;;5015140;28;20793;-65
2020/12/18 02:52:54;;;;;;;5.38;2.60;;;7.20;1.00;;;;;;5015256;28;20451;-65
2020/12/18 02:55:21;;;;;;;2.92;2.10;;;7.20;1.00;;;;;;5015385;28;20413;-65
2020/12/18 02:57:47;;;;;;;5.72;2.53;;;7.20;1.00;;;;;;5015266;28;20420;-65
2020/12/18 03:00:14;;;;;;;7.10;3.00;;;7.20;1.00;;;;;;5015536;28;20419;-65
2020/12/18 03:02:40;;;;;;;3.80;2.33;;;7.20;1.00;;;;;;5015746;28;20474;-65
2020/12/18 03:05:06;;;;;;;4.30;2.30;;;7.20;1.00;;;;;;5015752;28;20424;-65
2020/12/18 03:07:32;;;;;;;3.40;2.15;;;7.20;1.00;;;;;;5016016;28;20412;-64
2020/12/18 03:09:58;;;;;;;3.55;2.50;;;7.20;1.00;;;;;;5014843;28;20424;-65
2020/12/18 03:12:24;;;;;;;3.50;2.30;;;7.20;1.00;;;;;;5015066;28;20447;-64
2020/12/18 03:14:50;;;;;;;4.10;2.70;;;7.20;1.00;;;;;;5014616;28;20428;-64
2020/12/18 03:17:17;;;;;;;6.10;2.78;;;7.30;1.00;;;;;;5015012;28;20821;-64
2020/12/18 03:19:43;;;;;;;3.57;2.43;;;7.30;1.00;;;;;;5014888;28;20416;-64
2020/12/18 03:22:09;;;;;;;3.60;2.30;;;7.20;1.00;;;;;;5014456;28;20951;-64
2020/12/18 03:24:36;;;;;;;3.87;2.00;;;7.20;1.00;;;;;;5014947;28;20472;-64
2020/12/18 03:27:02;;;;;;;2.70;2.28;;;7.20;1.00;;;;;;5014639;28;20420;-64
2020/12/18 03:29:28;;;;;;;2.97;2.00;;;7.30;1.00;;;;;;5014884;28;20431;-65
2020/12/18 03:31:54;;;;;;;4.93;2.55;;;7.30;1.00;;;;;;5014651;28;20417;-64
2020/12/18 03:34:21;;;;;;;1.83;1.70;;;7.20;1.00;;;;;;5014857;28;20758;-65
2020/12/18 03:36:47;;;;;;;4.70;1.90;;;7.20;1.00;;;;;;5014702;28;20416;-64
2020/12/18 03:39:13;;;;;;;4.60;2.00;;;7.20;1.00;;;;;;5014634;28;20860;-65
2020/12/18 03:41:39;;;;;;;4.25;2.50;;;7.10;1.00;;;;;;5014627;28;20424;-64
2020/12/18 03:44:06;;;;;;;4.70;2.50;;;7.10;1.00;;;;;;5014450;28;20476;-64
2020/12/18 03:46:32;;;;;;;3.90;2.20;;;7.00;1.00;;;;;;5014434;28;20416;-65
2020/12/18 03:48:58;;;;;;;3.95;2.47;;;6.90;1.00;;;;;;5014331;28;20420;-64
2020/12/18 03:51:25;;;;;;;4.82;2.30;;;6.90;1.00;;;;;;5014072;28;20424;-65
2020/12/18 03:53:51;;;;;;;3.95;2.25;;;6.90;1.00;;;;;;5014484;28;20417;-64
2020/12/18 03:56:17;;;;;;;2.58;1.95;;;7.00;1.00;;;;;;5014181;28;20421;-65
2020/12/18 03:58:43;;;;;;;3.50;2.22;;;6.90;1.00;;;;;;5014190;28;20836;-64
2020/12/18 04:01:09;;;;;;;4.30;2.40;;;6.90;1.00;;;;;;5013850;28;20413;-64
2020/12/18 04:03:35;;;;;;;3.50;2.30;;;6.90;1.00;;;;;;5014427;28;20425;-64
2020/12/18 04:06:01;;;;;;;3.85;2.30;;;6.80;1.00;;;;;;5014376;28;20489;-64
2020/12/18 04:08:28;;;;;;;5.03;2.00;;;6.70;1.00;;;;;;5015721;28;20416;-64
2020/12/18 04:10:55;;;;;;;5.15;2.30;;;6.80;1.00;;;;;;5013829;28;20428;-64
2020/12/18 04:13:21;;;;;;;5.65;2.65;;;6.70;1.00;;;;;;5013889;28;20785;-64
2020/12/18 04:15:47;;;;;;;3.03;2.00;;;6.70;1.00;;;;;;5014032;28;20421;-64
2020/12/18 04:18:14;;;;;;;4.07;2.30;;;6.70;1.00;;;;;;5013639;28;20901;-64
2020/12/18 04:20:41;;;;;;;3.08;2.30;;;6.70;1.00;;;;;;5013421;28;20420;-64
2020/12/18 04:23:08;;;;;;;5.97;2.75;;;6.70;1.00;;;;;;5013928;28;20421;-64
2020/12/18 04:25:35;;;;;;;4.80;2.67;;;6.70;1.00;;;;;;5013630;28;20923;-64
2020/12/18 04:28:01;;;;;;;5.10;2.85;;;6.70;1.00;;;;;;5013736;28;20416;-64
2020/12/18 04:30:27;;;;;;;3.67;1.90;;;6.60;1.00;;;;;;5013584;28;20813;-64
2020/12/18 04:32:53;;;;;;;5.55;3.03;;;6.60;1.00;;;;;;5014146;28;20467;-64
2020/12/18 04:35:19;;;;;;;6.28;2.70;;;6.60;1.00;;;;;;5013216;28;20425;-64
2020/12/18 04:37:45;;;;;;;3.15;2.42;;;6.50;1.00;;;;;;5013713;28;20420;-64
2020/12/18 04:40:12;;;;;;;8.00;2.55;;;6.50;1.00;;;;;;5013468;28;20409;-63
2020/12/18 04:42:39;;;;;;;4.18;2.80;;;6.60;1.00;;;;;;5013483;28;20420;-64
2020/12/18 04:45:05;;;;;;;4.90;2.50;;;6.50;1.00;;;;;;5013506;28;20417;-64
2020/12/18 04:47:36;;;;;;;4.30;2.47;;;6.50;1.00;;;;;;5013487;28;20421;-64
2020/12/18 04:50:03;;;;;;;4.18;2.55;;;6.40;1.00;;;;;;5013976;28;20428;-64
2020/12/18 04:52:29;;;;;;;3.90;2.80;;;6.40;1.00;;;;;;5013588;28;20475;-64
2020/12/18 04:54:59;;;;;;;5.07;2.50;;;6.40;1.00;;;;;;5013186;28;20808;-64
2020/12/18 04:57:28;;;;;;;3.90;2.92;;;6.40;1.00;;;;;;5013164;28;20470;-64
2020/12/18 04:59:56;;;;;;;3.92;3.00;;;6.40;1.00;;;;;;5012816;28;20420;-64
2020/12/18 05:02:23;;;;;;;4.57;3.05;;;6.30;1.00;;;;;;5012788;28;20427;-64
2020/12/18 05:04:49;;;;;;;3.25;2.78;;;6.30;1.00;;;;;;5012902;28;20421;-64
2020/12/18 05:07:15;;;;;;;4.85;2.80;;;6.30;1.00;;;;;;5013334;28;20424;-64
2020/12/18 05:09:44;;;;;;;3.83;2.90;;;6.30;1.00;;;;;;5012932;28;20483;-64
2020/12/18 05:12:10;;;;;;;5.45;3.00;;;6.20;1.00;;;;;;5012810;28;20916;-64
2020/12/18 05:14:36;;;;;;;3.10;2.80;;;6.20;1.00;;;;;;5012649;28;20906;-64
2020/12/18 05:17:07;;;;;;;4.03;2.92;;;6.20;1.00;;;;;;5005422;28;20854;-64
2020/12/18 05:19:38;;;;;;;6.28;3.50;;;6.20;1.00;;;;;;5010381;28;20454;-64
2020/12/18 05:22:05;;;;;;;4.28;2.72;;;6.30;1.00;;;;;;5012384;28;20479;-64
2020/12/18 05:24:31;;;;;;;7.50;3.20;;;6.20;1.00;;;;;;5012420;28;20912;-64
2020/12/18 05:26:59;;;;;;;5.22;2.90;;;6.20;1.00;;;;;;5012598;28;20422;-64
2020/12/18 05:29:26;;;;;;;4.93;2.95;;;6.20;1.00;;;;;;5012085;28;20478;-64
2020/12/18 05:31:55;;;;;;;3.10;2.70;;;6.30;1.00;;;;;;5012485;28;20417;-64
2020/12/18 05:34:22;;;;;;;6.63;2.83;;;6.30;1.00;;;;;;5012538;28;20770;-64
2020/12/18 05:36:48;;;;;;;6.05;3.40;;;6.30;1.00;;;;;;5012612;28;20816;-64
2020/12/18 05:39:14;;;;;;;5.38;3.15;;;6.30;1.00;;;;;;5012212;28;20417;-64
2020/12/18 05:41:43;;;;;;;4.27;2.93;;;6.30;1.00;;;;;;5011982;28;20420;-64
2020/12/18 05:44:10;;;;;;;5.30;2.80;;;6.30;1.00;;;;;;5012411;28;20427;-64
2020/12/18 05:46:39;;;;;;;3.70;2.80;;;6.30;1.00;;;;;;5012473;28;20417;-64
2020/12/18 05:49:07;;;;;;;3.35;2.63;;;6.40;1.00;;;;;;5012469;28;20412;-64
2020/12/18 05:51:36;;;;;;;3.55;2.85;;;6.40;1.00;;;;;;5011850;28;20424;-64
2020/12/18 05:54:13;;;;;;;4.82;3.20;;;6.30;1.00;;;;;;5012870;28;20421;-65
2020/12/18 05:56:40;;;;;;;6.63;3.20;;;6.20;1.00;;;;;;5011982;28;20497;-64
2020/12/18 05:59:08;;;;;;;5.25;3.00;;;6.30;1.00;;;;;;5012334;28;20416;-64
2020/12/18 06:01:39;;;;;;;4.77;2.97;;;6.30;1.00;;;;;;5012377;28;20762;-64
2020/12/18 06:04:10;;;;;;;5.85;2.80;;;6.20;1.00;;;;;;5013669;28;20423;-64
2020/12/18 06:06:41;;;;;;;4.93;3.33;;;6.20;1.00;;;;;;5012466;28;20423;-64
2020/12/18 06:09:09;;;;;;;7.53;2.80;;;6.20;1.00;;;;;;4995993;28;20418;-64
2020/12/18 06:11:36;;;;;;;3.25;2.60;;;6.20;1.00;;;;;;4992261;28;20461;-64
2020/12/18 06:14:02;;;;;;;4.18;2.85;;;6.20;1.00;;;;;;4991995;28;20426;-64
2020/12/18 06:16:29;;;;;;;4.53;3.10;;;6.10;1.00;;;;;;4991580;28;21049;-64
2020/12/18 06:19:04;;;;;;;6.73;3.10;;;6.10;1.00;;;;;;4992164;28;20414;-65
2020/12/18 06:21:30;;;;;;;4.90;2.80;;;6.00;1.00;;;;;;4990286;28;20529;-64
2020/12/18 06:23:58;;;;;;;3.33;2.80;;;6.10;1.00;;;;;;4991219;28;20441;-65
2020/12/18 06:26:25;;;;;;;6.25;3.10;;;6.10;1.00;;;;;;4992067;28;20422;-65
2020/12/18 06:28:52;;;;;;;5.10;3.10;;;6.10;1.00;;;;;;4991524;28;20418;-64
2020/12/18 06:31:23;;;;;;;4.05;2.60;;;6.10;1.00;;;;;;4991314;28;20524;-64
2020/12/18 06:33:51;;;;;;;5.20;3.00;;;6.10;1.00;;;;;;4991519;28;21100;-64
2020/12/18 06:36:18;;;;;;;5.03;2.80;;;6.10;1.00;;;;;;4991221;28;20422;-64
2020/12/18 06:38:44;;;;;;;5.13;2.90;;;6.20;1.00;;;;;;4991838;28;20457;-64
2020/12/18 06:41:22;;;;;;;3.33;2.60;;;6.10;1.00;;;;;;4991712;28;20414;-64
2020/12/18 06:43:49;;;;;;;6.15;2.92;;;6.20;1.00;;;;;;4991992;28;20428;-65
2020/12/18 06:46:19;;;;;;;4.35;2.85;;;6.20;1.00;;;;;;4991815;28;20787;-64
2020/12/18 06:48:50;;;;;;;7.20;3.05;;;6.20;1.00;;;;;;4991547;28;20471;-65
2020/12/18 06:51:29;;;;;;;4.00;2.60;;;6.30;1.00;;;;;;4992676;28;20434;-64
2020/12/18 06:54:08;;;;;;;5.38;2.97;;;6.20;1.00;;;;;;4993701;28;20410;-67
2020/12/18 06:56:35;;;;;;;3.58;2.63;;;6.20;1.00;;;;;;4994307;28;20494;-65
2020/12/18 06:59:19;;;;;;;9.02;2.70;;;6.30;1.00;;;;;;4991534;28;20426;-65
2020/12/18 07:01:47;;;;;;;5.03;3.45;;;6.30;1.00;;;;;;4991673;28;20413;-65
2020/12/18 07:04:21;;;;;;;6.38;3.05;;;6.30;1.00;;;;;;4993171;28;20422;-66
2020/12/18 07:06:47;;;;;;;4.50;2.83;;;6.30;1.00;;;;;;4992243;28;20414;-65
2020/12/18 07:09:15;;;;;;;5.65;2.80;;;6.30;1.00;;;;;;4992539;28;20418;-65
2020/12/18 07:11:43;;;;;;;6.10;2.37;;;6.30;1.00;;;;;;4990804;28;20481;-65
2020/12/18 07:14:15;;;;;;;4.20;2.70;;;6.30;1.00;;;;;;4991679;28;20940;-65
2020/12/18 07:16:53;;;;;;;8.65;2.92;;;6.40;1.00;;;;;;4991656;28;20474;-64
2020/12/18 07:19:19;;;;;;;7.40;3.13;;;6.40;1.00;;;;;;4991722;28;20432;-66
2020/12/18 07:21:47;;;;;;;4.80;2.80;;;6.40;1.00;;;;;;4991279;28;20426;-66
2020/12/18 07:24:13;;;;;;;4.57;2.70;;;6.40;1.00;;;;;;4991817;28;20421;-67
2020/12/18 07:26:39;;;;;;;5.65;2.72;;;6.40;1.00;;;;;;4991761;28;20414;-65
2020/12/18 07:29:06;;;;;;;4.40;2.70;;;6.40;1.00;;;;;;4991778;28;20425;-66
2020/12/18 07:31:32;;;;;;;4.40;2.40;;;6.50;1.00;;;;;;4991053;28;20429;-65
2020/12/18 07:34:00;;;;;;;4.50;2.60;;;6.50;1.00;;;;;;4991468;28;20414;-64
2020/12/18 07:36:27;;;;;;;6.18;2.70;;;6.50;1.00;;;;;;4994556;28;20425;-65
2020/12/18 07:38:57;;;;;;;5.05;2.60;;;6.50;1.00;;;;;;4995035;28;20418;-68
2020/12/18 07:41:24;;;;;;;4.53;2.70;;;6.50;1.00;;;;;;4994613;28;20434;-66
2020/12/18 07:43:50;;;;;;;5.15;2.70;;;6.60;1.00;;;;;;4995301;28;20488;-66
2020/12/18 07:46:19;;;;;;;3.60;2.60;;;6.60;1.00;;;;;;4994898;28;20426;-66
2020/12/18 07:48:46;;;;;;;4.65;2.38;;;6.50;1.00;;;;;;4995023;28;20482;-65
2020/12/18 07:51:16;;;;;;;5.72;2.83;;;6.60;1.00;;;;;;4993949;28;20596;-66
2020/12/18 07:53:42;;;;;;;5.22;2.50;;;6.60;1.00;;;;;;4994512;28;20429;-65
2020/12/18 07:56:10;;;;;;;6.80;2.50;;;6.70;1.00;;;;;;4995370;28;20429;-65
2020/12/18 07:58:47;;;;;;;3.40;2.40;;;6.70;1.00;;;;;;4996264;28;20422;-65
2020/12/18 08:01:15;;;;;;;5.50;2.42;;;6.70;1.00;;;;;;4994365;28;20791;-65
2020/12/18 08:03:48;;;;;;;4.20;2.72;;;6.80;1.00;;;;;;4994574;28;20418;-65
2020/12/18 08:06:16;;;;;;;7.82;2.80;;;6.80;1.00;;;;;;4994541;28;20794;-65
2020/12/18 08:08:48;;;;;;;4.20;2.50;;;6.80;1.00;;;;;;4994638;28;20422;-65
2020/12/18 08:11:16;;;;;;;5.10;2.10;;;6.90;1.00;;;;;;4993980;28;20926;-66
2020/12/18 08:13:42;;;;;;;5.63;2.63;;;7.00;1.00;;;;;;4994207;28;20414;-67
2020/12/18 08:16:10;;;;;;;4.13;2.75;;;7.00;1.00;;;;;;4994489;28;20493;-63
2020/12/18 08:18:37;;;;;;;5.07;2.50;;;7.10;1.00;;;;;;4995855;28;20417;-63
2020/12/18 08:21:04;;;;;;;7.15;2.58;;;7.10;1.00;;;;;;4998355;28;20422;-64
2020/12/18 08:23:33;;;;;;;5.30;2.15;;;7.20;1.00;;;;;;4994289;28;20418;-64
2020/12/18 08:25:59;;;;;;;6.65;2.60;;;7.20;1.00;;;;;;4994168;28;20422;-66
2020/12/18 08:28:29;;;;;;;4.30;2.10;;;7.30;1.00;;;;;;4994337;28;20891;-66
2020/12/18 08:30:56;;;;;;;3.10;2.20;;;7.40;1.00;;;;;;4993561;28;20434;-65
2020/12/18 08:33:24;;;;;;;6.45;2.67;;;7.50;1.00;;;;;;4994252;28;20799;-65
2020/12/18 08:35:53;;;;;;;3.20;2.85;;;7.60;1.00;;;;;;4994925;28;20445;-65
2020/12/18 08:38:20;;;;;;;4.38;2.33;;;7.60;1.00;;;;;;4994516;28;20422;-67
2020/12/18 08:40:46;;;;;;;4.30;2.00;;;7.70;1.00;;;;;;4994145;28;20418;-66
2020/12/18 08:43:13;;;;;;;2.80;2.28;;;7.80;1.00;;;;;;4993666;28;20414;-66
2020/12/18 08:45:43;;;;;;;4.55;2.40;;;7.90;1.00;;;;;;4993911;28;20426;-67
2020/12/18 08:48:11;;;;;;;4.95;2.65;;;7.90;1.00;;;;;;4993250;28;21315;-68
2020/12/18 08:50:38;;;;;;;4.20;2.33;;;7.90;1.00;;;;;;4996030;28;20481;-68
2020/12/18 08:53:12;;;;;;;2.80;2.20;;;8.00;1.00;;;;;;4993639;28;20422;-67
2020/12/18 08:55:40;;;;;;;5.03;2.38;;;8.20;1.00;;;;;;4994096;28;20422;-67
2020/12/18 08:58:08;;;;;;;4.97;2.50;;;8.40;1.00;;;;;;4994324;28;20536;-67
2020/12/18 09:00:34;;;;;;;2.95;1.95;;;8.30;1.00;;;;;;4994181;28;20422;-66
2020/12/18 09:03:01;;;;;;;2.70;2.00;;;8.40;1.00;;;;;;4994338;28;20426;-65
2020/12/18 09:05:29;;;;;;;4.10;2.00;;;8.40;1.00;;;;;;4995407;28;20426;-64
2020/12/18 09:07:57;;;;;;;4.50;2.20;;;8.40;1.00;;;;;;4993731;28;20855;-66
2020/12/18 09:10:32;;;;;;;3.50;2.38;;;8.40;1.00;;;;;;4993279;28;21126;-65
2020/12/18 09:13:09;;;;;;;3.50;2.20;;;8.40;1.00;;;;;;4992835;28;20446;-66
2020/12/18 09:15:35;;;;;;;4.25;1.98;;;8.40;1.00;;;;;;4993326;28;20895;-66
2020/12/18 09:18:03;;;;;;;3.13;1.90;;;8.40;1.00;;;;;;4993306;28;20955;-68
2020/12/18 09:20:31;;;;;;;3.40;2.03;;;8.40;1.00;;;;;;4993608;28;20514;-65
2020/12/18 09:23:01;;;;;;;5.47;3.03;;;8.40;1.00;;;;;;4993202;28;20469;-66
2020/12/18 09:25:27;;;;;;;2.95;2.20;;;8.40;1.00;;;;;;4993053;28;20799;-65
2020/12/18 09:27:55;;;;;;;4.18;2.10;;;8.40;1.00;;;;;;4993145;28;20925;-64
2020/12/18 09:30:23;;;;;;;3.78;2.38;;;8.40;1.00;;;;;;4992842;28;20426;-66
2020/12/18 09:33:25;;;;;;;2.42;1.75;;;8.50;1.00;;;;;;4993117;28;20429;-66
2020/12/18 09:35:53;;;;;;;4.00;2.30;;;8.60;1.00;;;;;;4989794;28;20430;-66
2020/12/18 09:38:28;;;;;;;5.82;2.00;;;8.70;1.00;;;;;;4993265;28;20440;-65
2020/12/18 09:40:55;;;;;;;6.73;2.00;;;8.80;1.00;;;;;;4993047;28;20459;-68
2020/12/18 09:43:21;;;;;;;3.00;1.88;;;8.90;1.00;;;;;;4992905;28;20422;-67
2020/12/18 09:45:49;;;;;;;2.65;2.25;;;9.00;1.00;;;;;;4992859;28;20423;-67
2020/12/18 09:48:15;;;;;;;2.50;1.70;;;9.10;1.00;;;;;;4993173;28;20465;-67
2020/12/18 09:50:41;;;;;;;4.32;2.10;;;9.20;1.00;;;;;;4993009;28;20492;-66
2020/12/18 09:53:08;;;;;;;3.80;1.90;;;9.20;1.00;;;;;;4992778;28;20414;-66
2020/12/18 09:55:34;;;;;;;2.33;2.00;;;9.20;1.00;;;;;;4992582;28;20446;-65
2020/12/18 09:58:02;;;;;;;3.20;2.00;;;9.30;1.00;;;;;;4992152;28;20427;-64
2020/12/18 10:00:28;;;;;;;2.40;1.95;;;9.30;1.00;;;;;;4992639;28;20418;-65
2020/12/18 10:02:56;;;;;;;4.22;2.20;;;9.30;1.00;;;;;;4992667;28;20422;-65
2020/12/18 10:05:22;;;;;;;4.60;2.30;;;9.30;1.00;;;;;;4993020;28;20418;-65
2020/12/18 10:07:48;;;;;;;3.35;1.80;;;9.20;1.00;;;;;;4993239;28;20433;-63
2020/12/18 10:10:15;;;;;;;4.22;1.85;;;9.30;1.00;;;;;;4992339;28;20434;-65
2020/12/18 10:12:41;;;;;;;3.75;1.90;;;9.30;1.00;;;;;;4991613;28;20783;-64
2020/12/18 10:15:07;;;;;;;4.40;1.80;;;9.30;1.00;;;;;;4992039;28;20426;-65
2020/12/18 10:17:34;;;;;;;4.10;1.60;;;9.30;1.00;;;;;;4992389;28;20414;-65
2020/12/18 10:20:01;;;;;;;4.45;1.80;;;9.30;1.00;;;;;;4992427;28;20465;-64
2020/12/18 10:22:27;;;;;;;3.90;1.90;;;9.40;1.00;;;;;;4992253;28;20449;-63
2020/12/18 10:24:53;;;;;;;3.60;2.03;;;9.40;1.00;;;;;;4991795;28;20430;-64
2020/12/18 10:27:19;;;;;;;3.17;2.23;;;9.50;1.00;;;;;;4992341;28;20945;-64
2020/12/18 10:29:45;;;;;;;6.47;2.20;;;9.50;1.00;;;;;;4992184;28;20418;-65
2020/12/18 10:32:11;;;;;;;4.60;1.83;;;9.60;1.00;;;;;;4991600;28;20453;-65
2020/12/18 10:34:38;;;;;;;2.90;1.70;;;9.60;1.00;;;;;;4992211;28;20414;-64
2020/12/18 10:37:05;;;;;;;3.20;1.70;;;9.70;1.00;;;;;;4994351;28;20433;-64
2020/12/18 10:39:31;;;;;;;2.67;1.70;;;9.70;1.00;;;;;;4991983;28;20431;-64
2020/12/18 10:41:59;;;;;;;2.95;1.80;;;9.80;1.00;;;;;;4991651;28;20414;-64
2020/12/18 10:44:25;;;;;;;4.10;1.70;;;9.90;1.00;;;;;;4992486;28;20786;-65
2020/12/18 10:46:51;;;;;;;2.70;1.90;;;10.00;1.00;;;;;;4992180;28;20414;-65
2020/12/18 10:49:17;;;;;;;3.17;1.90;;;10.00;1.00;;;;;;4991937;28;20418;-65
2020/12/18 10:51:45;;;;;;;2.63;1.77;;;10.10;1.00;;;;;;4991787;28;20438;-64
2020/12/18 10:54:13;;;;;;;2.28;1.60;;;10.20;1.00;;;;;;4991993;28;20414;-63
2020/12/18 10:56:43;;;;;;;3.25;2.35;;;10.30;1.00;;;;;;4996500;28;20489;-64
2020/12/18 10:59:10;;;;;;;2.50;1.60;;;10.40;1.00;;;;;;4991834;28;20423;-64
2020/12/18 11:01:37;;;;;;;2.33;1.60;;;10.40;1.00;;;;;;4991264;28;20414;-64
2020/12/18 11:04:03;;;;;;;2.40;2.15;;;10.40;1.00;;;;;;4991733;28;20961;-64
2020/12/18 11:06:29;;;;;;;2.00;1.42;;;10.50;1.00;;;;;;4991958;28;20468;-66
2020/12/18 11:08:56;;;;;;;5.30;1.80;;;10.40;1.00;;;;;;4993290;28;20429;-65
2020/12/18 11:11:23;;;;;;;2.15;1.40;;;10.50;1.00;;;;;;4995327;28;20915;-67
2020/12/18 11:13:49;;;;;;;1.95;1.48;;;10.60;1.00;;;;;;4995965;28;20418;-65
2020/12/18 11:16:16;;;;;;;2.00;1.80;;;10.70;1.00;;;;;;4995871;28;20418;-64
2020/12/18 11:18:43;;;;;;;2.50;1.50;;;10.70;1.00;;;;;;4995811;28;20422;-64
2020/12/18 11:21:09;;;;;;;2.30;1.40;;;10.80;1.00;;;;;;4996326;28;20461;-66
2020/12/18 11:23:36;;;;;;;3.15;1.70;;;10.80;1.00;;;;;;4995348;28;20418;-65
2020/12/18 11:26:03;;;;;;;2.90;1.80;;;10.80;1.00;;;;;;4995522;28;20439;-66
2020/12/18 11:28:30;;;;;;;1.55;1.45;;;10.70;1.00;;;;;;4995812;28;20414;-65
2020/12/18 11:30:56;;;;;;;3.13;1.70;;;10.70;1.00;;;;;;4995764;28;20426;-65
2020/12/18 11:33:22;;;;;;;1.67;1.55;;;10.80;1.00;;;;;;4995463;28;20418;-64
2020/12/18 11:35:48;;;;;;;3.00;1.60;;;10.70;1.00;;;;;;4995010;28;20418;-65
2020/12/18 11:38:14;;;;;;;2.70;1.73;;;10.80;1.00;;;;;;4995104;28;20414;-64
2020/12/18 11:40:40;;;;;;;2.37;1.70;;;10.90;1.00;;;;;;4995717;28;20414;-62
2020/12/18 11:43:07;;;;;;;2.25;1.40;;;10.90;1.00;;;;;;4995997;28;20429;-64
2020/12/18 11:45:34;;;;;;;4.40;1.80;;;10.90;1.00;;;;;;4996864;28;20418;-68
2020/12/18 11:48:01;;;;;;;4.93;1.60;;;10.90;1.00;;;;;;4995142;28;20899;-66
2020/12/18 11:50:28;;;;;;;3.03;1.73;;;11.00;1.00;;;;;;4995047;28;20434;-63
2020/12/18 11:52:55;;;;;;;2.60;2.10;;;11.10;1.00;;;;;;4994230;28;20418;-63
2020/12/18 11:55:21;;;;;;;3.53;1.60;;;11.20;1.00;;;;;;4995059;28;20501;-64
2020/12/18 11:57:47;;;;;;;3.00;1.30;;;11.30;1.00;;;;;;4994954;28;20423;-64
2020/12/18 12:00:13;;;;;;;1.87;1.40;;;11.30;1.00;;;;;;4994927;28;20473;-65
2020/12/18 12:02:41;;;;;;;1.73;1.40;;;11.30;1.00;;;;;;4994428;28;20422;-65
2020/12/18 12:05:07;;;;;;;1.85;1.50;;;11.30;1.00;;;;;;4995008;28;20418;-66
2020/12/18 12:07:33;;;;;;;1.75;1.40;;;11.30;1.00;;;;;;4994704;28;20888;-66
2020/12/18 12:09:59;;;;;;;2.00;1.40;;;11.30;1.00;;;;;;4994744;28;20414;-66
2020/12/18 12:12:25;;;;;;;3.90;1.50;;;11.30;1.00;;;;;;4994608;28;20925;-66
2020/12/18 12:14:51;;;;;;;2.70;1.60;;;11.30;1.00;;;;;;4994476;28;20422;-66
2020/12/18 12:17:17;;;;;;;4.63;1.30;;;11.40;1.00;;;;;;4994722;28;20422;-66
2020/12/18 12:19:44;;;;;;;2.63;1.30;;;11.40;1.00;;;;;;4994469;28;20418;-65
2020/12/18 12:22:10;;;;;;;2.10;1.40;;;11.40;1.00;;;;;;4993501;28;20418;-65
2020/12/18 12:24:42;;;;;;;2.72;1.90;;;11.40;1.00;;;;;;4994625;28;20418;-66
2020/12/18 12:27:09;;;;;;;3.35;1.40;;;11.30;1.00;;;;;;4994646;28;20473;-66
2020/12/18 12:29:35;;;;;;;3.17;1.75;;;11.40;99.90;;;;;;4994508;28;20915;-66
2020/12/18 12:32:01;;;;;;;2.10;1.42;;;11.40;1.00;;;;;;4994092;28;20426;-65
2020/12/18 12:34:27;;;;;;;3.20;1.77;;;11.40;99.90;;;;;;4993778;28;20834;-66
2020/12/18 12:36:56;;;;;;;2.92;1.38;;;11.30;99.90;;;;;;4994322;28;20426;-67
2020/12/18 12:39:23;;;;;;;1.57;1.40;;;11.40;99.90;;;;;;4994447;28;20433;-66
2020/12/18 12:41:49;;;;;;;2.42;1.30;;;11.50;99.90;;;;;;4993800;28;20470;-66
2020/12/18 12:44:15;;;;;;;3.10;1.60;;;11.50;99.90;;;;;;4994158;28;20422;-66
2020/12/18 12:46:41;;;;;;;3.53;1.30;;;11.60;99.90;;;;;;4993644;28;20418;-65
2020/12/18 12:49:07;;;;;;;2.28;1.35;;;11.60;99.90;;;;;;4994095;28;20894;-66
2020/12/18 12:51:33;;;;;;;3.88;1.70;;;11.50;99.90;;;;;;4993772;28;20430;-66
2020/12/18 12:54:00;;;;;;;1.85;1.30;;;11.60;99.90;;;;;;4994116;28;20477;-65
2020/12/18 12:56:27;;;;;;;1.52;1.42;;;11.50;99.90;;;;;;4993654;28;20425;-68
2020/12/18 12:58:53;;;;;;;3.15;1.45;;;11.50;99.90;;;;;;4993809;28;20422;-66
2020/12/18 13:01:19;;;;;;;2.00;1.55;;;11.60;99.90;;;;;;4993502;28;20422;-66
2020/12/18 13:03:45;;;;;;;3.00;1.60;;;11.40;99.90;;;;;;4993076;28;20422;-64
2020/12/18 13:06:11;;;;;;;2.38;1.60;;;11.10;99.90;;;;;;4993481;28;20926;-66